createdAt,value
2023-02-20T00:01:01.405Z,1.80
2023-02-20T00:02:04.692Z,2.80
2023-02-20T00:03:08.527Z,2.90
2023-02-20T00:04:17.409Z,1.00
2023-02-20T00:05:20.392Z,0.40
2023-02-20T00:06:34.615Z,4.10
2023-02-20T00:07:36.719Z,5.20
2023-02-20T00:08:39.794Z,4.22
2023-02-20T00:09:42.293Z,3.60
2023-02-20T00:10:46.530Z,1.60
2023-02-20T00:11:48.977Z,5.90
2023-02-20T00:12:53.732Z,3.20
2023-02-20T00:13:57.736Z,3.82
2023-02-20T00:15:01.069Z,5.50
2023-02-20T00:16:03.621Z,3.90
2023-02-20T00:17:05.962Z,3.00
2023-02-20T00:18:08.272Z,5.30
2023-02-20T00:19:10.495Z,4.00
2023-02-20T00:20:20.442Z,5.64
2023-02-20T00:21:22.812Z,5.60
2023-02-20T00:22:25.537Z,4.00
2023-02-20T00:23:27.878Z,3.10
2023-02-20T00:24:30.752Z,7.20
2023-02-20T00:25:33.023Z,2.91
2023-02-20T00:26:35.335Z,7.50
2023-02-20T00:27:39.236Z,5.60
2023-02-20T00:28:42.782Z,3.40
2023-02-20T00:29:48.560Z,3.30
2023-02-20T00:30:50.985Z,4.90
2023-02-20T00:31:58.050Z,1.30
2023-02-20T00:33:02.426Z,4.20
2023-02-20T00:34:07.087Z,7.00
2023-02-20T00:35:11.148Z,1.70
2023-02-20T00:36:17.343Z,4.60
2023-02-20T00:37:20.003Z,3.20
2023-02-20T00:38:22.434Z,3.10
2023-02-20T00:39:24.650Z,2.60
2023-02-20T00:40:27.864Z,3.00
2023-02-20T00:41:30.690Z,2.10
2023-02-20T00:42:35.440Z,3.30
2023-02-20T00:43:39.394Z,0.20
2023-02-20T00:44:41.785Z,1.70
2023-02-20T00:45:45.312Z,3.30
2023-02-20T00:46:48.145Z,1.60
2023-02-20T00:47:50.707Z,4.80
2023-02-20T00:48:53.119Z,1.40
2023-02-20T00:50:16.956Z,1.30
2023-02-20T00:51:20.211Z,1.20
2023-02-20T00:52:23.103Z,0.80
2023-02-20T00:53:25.381Z,1.55
2023-02-20T00:54:28.798Z,2.90
2023-02-20T00:55:31.143Z,1.00
2023-02-20T00:56:39.805Z,2.20
2023-02-20T00:57:42.732Z,1.70
2023-02-20T00:58:45.419Z,4.45
2023-02-20T00:59:49.196Z,4.10
2023-02-20T01:00:55.841Z,1.40
2023-02-20T01:01:58.606Z,3.90
2023-02-20T01:03:01.188Z,0.50
2023-02-20T01:04:04.045Z,2.80
2023-02-20T01:05:06.491Z,2.36
2023-02-20T01:06:10.537Z,3.09
2023-02-20T01:07:13.536Z,2.20
2023-02-20T01:08:16.558Z,3.50
2023-02-20T01:09:19.592Z,1.55
2023-02-20T01:10:24.457Z,3.50
2023-02-20T01:11:26.630Z,1.40
2023-02-20T01:12:29.385Z,1.70
2023-02-20T01:13:33.770Z,2.00
2023-02-20T01:14:36.425Z,3.40
2023-02-20T01:15:38.857Z,1.00
2023-02-20T01:16:45.362Z,2.20
2023-02-20T01:17:48.641Z,1.90
2023-02-20T01:18:53.123Z,2.40
2023-02-20T01:19:55.883Z,4.90
2023-02-20T01:20:58.978Z,2.50
2023-02-20T01:22:06.344Z,1.20
2023-02-20T01:23:13.494Z,3.10
2023-02-20T01:24:18.112Z,1.00
2023-02-20T01:25:22.852Z,1.30
2023-02-20T01:26:25.462Z,0.90
2023-02-20T01:27:27.901Z,2.50
2023-02-20T01:28:30.291Z,2.60
2023-02-20T01:29:33.183Z,0.70
2023-02-20T01:30:40.850Z,0.60
2023-02-20T01:33:04.664Z,0.00
2023-02-20T01:34:11.271Z,1.70
2023-02-20T01:35:14.885Z,3.80
2023-02-20T01:36:18.665Z,1.40
2023-02-20T01:37:23.474Z,1.40
2023-02-20T01:38:26.626Z,1.80
2023-02-20T01:40:49.618Z,1.00
2023-02-20T01:41:54.974Z,1.90
2023-02-20T01:42:59.604Z,3.00
2023-02-20T01:44:11.489Z,2.00
2023-02-20T01:45:23.533Z,3.70
2023-02-20T01:46:32.550Z,1.10
2023-02-20T01:47:35.679Z,1.90
2023-02-20T01:48:37.964Z,2.09
2023-02-20T01:49:43.894Z,1.50
2023-02-20T01:50:54.876Z,0.70
2023-02-20T01:52:03.255Z,1.10
2023-02-20T01:53:09.193Z,1.70
2023-02-20T01:54:15.311Z,0.30
2023-02-20T01:55:23.983Z,2.50
2023-02-20T01:56:27.962Z,3.40
2023-02-20T01:57:33.435Z,2.60
2023-02-20T01:58:42.202Z,2.50
2023-02-20T01:59:48.483Z,1.20
2023-02-20T02:00:51.441Z,1.60
2023-02-20T02:01:54.491Z,4.82
2023-02-20T02:03:06.998Z,2.00
2023-02-20T02:04:12.410Z,1.00
2023-02-20T02:05:16.902Z,2.00
2023-02-20T02:06:19.398Z,2.70
2023-02-20T02:07:22.510Z,2.50
2023-02-20T02:08:27.860Z,1.70
2023-02-20T02:09:47.269Z,2.90
2023-02-20T02:10:56.603Z,2.20
2023-02-20T02:11:59.954Z,3.10
2023-02-20T02:13:02.989Z,1.90
2023-02-20T02:14:06.042Z,1.70
2023-02-20T02:15:16.371Z,3.36
2023-02-20T02:16:43.440Z,3.60
2023-02-20T02:18:23.052Z,0.50
2023-02-20T02:19:50.312Z,1.00
2023-02-20T02:21:11.394Z,0.00
2023-02-20T02:22:50.763Z,1.10
2023-02-20T02:24:24.243Z,1.90
2023-02-20T02:25:31.965Z,1.00
2023-02-20T02:27:01.093Z,2.10
2023-02-20T02:28:25.776Z,1.50
2023-02-20T02:29:44.228Z,2.70
2023-02-20T02:30:53.311Z,1.70
2023-02-20T02:32:14.838Z,3.30
2023-02-20T02:33:30.346Z,2.80
2023-02-20T02:35:04.159Z,1.50
2023-02-20T02:36:25.983Z,2.70
2023-02-20T02:37:36.031Z,0.00
2023-02-20T02:38:45.062Z,1.90
2023-02-20T02:39:56.934Z,0.60
2023-02-20T02:41:08.526Z,2.60
2023-02-20T02:42:31.209Z,3.10
2023-02-20T02:43:46.394Z,3.60
2023-02-20T02:45:04.225Z,6.30
2023-02-20T02:46:21.922Z,3.20
2023-02-20T02:47:33.718Z,2.90
2023-02-20T02:48:51.881Z,3.10
2023-02-20T02:50:04.339Z,2.60
2023-02-20T02:51:10.306Z,0.50
2023-02-20T02:52:15.977Z,0.50
2023-02-20T02:53:18.393Z,1.40
2023-02-20T02:54:27.309Z,2.20
2023-02-20T02:55:33.194Z,0.10
2023-02-20T02:56:42.295Z,3.80
2023-02-20T02:57:45.009Z,1.50
2023-02-20T02:58:54.331Z,1.40
2023-02-20T03:00:09.928Z,3.50
2023-02-20T03:01:14.212Z,1.50
2023-02-20T03:02:19.184Z,0.70
2023-02-20T03:03:29.247Z,2.80
2023-02-20T03:04:34.317Z,3.00
2023-02-20T03:05:40.410Z,2.40
2023-02-20T03:06:46.067Z,3.50
2023-02-20T03:07:52.108Z,1.50
2023-02-20T03:09:10.542Z,1.10
2023-02-20T03:10:18.777Z,2.30
2023-02-20T03:11:21.915Z,1.20
2023-02-20T03:12:27.154Z,3.20
2023-02-20T03:13:51.901Z,0.80
2023-02-20T03:15:19.864Z,1.40
2023-02-20T03:16:26.897Z,1.10
2023-02-20T03:17:32.716Z,3.00
2023-02-20T03:18:39.766Z,1.70
2023-02-20T03:19:52.066Z,1.00
2023-02-20T03:20:58.498Z,3.20
2023-02-20T03:22:04.176Z,2.90
2023-02-20T03:23:08.846Z,1.30
2023-02-20T03:24:14.059Z,2.30
2023-02-20T03:25:22.993Z,1.10
2023-02-20T03:26:29.522Z,4.20
2023-02-20T03:27:41.416Z,1.70
2023-02-20T03:28:57.217Z,2.40
2023-02-20T03:30:00.899Z,3.90
2023-02-20T03:31:19.276Z,2.60
2023-02-20T03:32:43.705Z,3.20
2023-02-20T03:34:17.187Z,3.00
2023-02-20T03:35:41.537Z,1.70
2023-02-20T03:37:18.499Z,1.00
2023-02-20T03:38:42.471Z,1.60
2023-02-20T03:40:10.344Z,1.50
2023-02-20T03:41:33.980Z,4.70
2023-02-20T03:42:59.413Z,1.40
2023-02-20T03:44:06.386Z,3.90
2023-02-20T03:45:12.056Z,2.40
2023-02-20T03:46:18.820Z,0.00
2023-02-20T03:47:25.026Z,4.00
2023-02-20T03:48:31.729Z,4.60
2023-02-20T03:49:37.669Z,6.10
2023-02-20T03:50:40.884Z,5.00
2023-02-20T03:51:44.004Z,1.70
2023-02-20T03:52:48.685Z,1.10
2023-02-20T03:53:54.530Z,0.30
2023-02-20T03:54:59.769Z,3.60
2023-02-20T03:56:05.857Z,1.70
2023-02-20T03:57:13.137Z,1.00
2023-02-20T03:58:19.249Z,0.00
2023-02-20T03:59:29.086Z,1.00
2023-02-20T04:00:35.864Z,5.20
2023-02-20T04:01:41.389Z,0.50
2023-02-20T04:02:47.260Z,1.20
2023-02-20T04:03:53.593Z,1.40
2023-02-20T04:04:59.776Z,3.20
2023-02-20T04:06:05.926Z,3.00
2023-02-20T04:07:13.839Z,0.50
2023-02-20T04:08:23.131Z,0.00
2023-02-20T04:09:32.035Z,1.00
2023-02-20T04:10:38.793Z,3.90
2023-02-20T04:11:45.111Z,0.80
2023-02-20T04:12:50.630Z,2.00
2023-02-20T04:13:55.227Z,0.80
2023-02-20T04:15:00.038Z,2.80
2023-02-20T04:16:03.700Z,3.00
2023-02-20T04:17:10.158Z,0.60
2023-02-20T04:18:20.676Z,1.00
2023-02-20T04:19:24.238Z,3.80
2023-02-20T04:20:27.403Z,1.10
2023-02-20T04:21:44.456Z,2.00
2023-02-20T04:22:51.702Z,2.00
2023-02-20T04:24:09.880Z,0.90
2023-02-20T04:25:34.282Z,2.20
2023-02-20T04:26:39.236Z,2.40
2023-02-20T04:27:43.462Z,0.20
2023-02-20T04:28:47.947Z,2.30
2023-02-20T04:29:51.639Z,0.90
2023-02-20T04:30:54.373Z,1.36
2023-02-20T04:31:56.935Z,3.00
2023-02-20T04:33:01.497Z,1.50
2023-02-20T04:34:03.983Z,0.50
2023-02-20T04:35:07.389Z,1.40
2023-02-20T04:36:12.521Z,3.10
2023-02-20T04:37:19.502Z,1.50
2023-02-20T04:38:22.812Z,0.60
2023-02-20T04:39:39.730Z,2.60
2023-02-20T04:40:42.729Z,1.20
2023-02-20T04:41:45.002Z,0.73
2023-02-20T04:42:47.904Z,2.80
2023-02-20T04:43:52.256Z,1.73
2023-02-20T04:44:54.765Z,3.60
2023-02-20T04:45:57.338Z,1.50
2023-02-20T04:47:03.478Z,2.40
2023-02-20T04:48:05.950Z,0.00
2023-02-20T04:49:09.438Z,2.10
2023-02-20T04:50:19.770Z,1.70
2023-02-20T04:51:22.345Z,1.30
2023-02-20T04:52:25.312Z,0.27
2023-02-20T04:53:27.742Z,2.00
2023-02-20T04:54:30.050Z,1.20
2023-02-20T04:55:32.699Z,2.70
2023-02-20T04:56:38.403Z,1.60
2023-02-20T04:57:41.236Z,4.50
2023-02-20T04:58:46.507Z,0.80
2023-02-20T04:59:51.229Z,4.10
2023-02-20T05:00:54.024Z,2.60
2023-02-20T05:01:57.029Z,2.90
2023-02-20T05:02:59.197Z,6.60
2023-02-20T05:04:02.020Z,0.10
2023-02-20T05:05:06.924Z,0.70
2023-02-20T05:06:10.234Z,1.90
2023-02-20T05:07:12.845Z,1.91
2023-02-20T05:08:16.390Z,2.40
2023-02-20T05:09:20.057Z,4.30
2023-02-20T05:10:24.225Z,0.70
2023-02-20T05:11:26.704Z,1.80
2023-02-20T05:12:29.366Z,3.20
2023-02-20T05:13:32.789Z,1.20
2023-02-20T05:14:35.631Z,0.00
2023-02-20T05:15:38.290Z,0.80
2023-02-20T05:16:42.088Z,2.20
2023-02-20T05:17:44.669Z,4.90
2023-02-20T05:18:47.171Z,1.70
2023-02-20T05:19:49.518Z,1.80
2023-02-20T05:21:10.784Z,1.50
2023-02-20T05:22:20.091Z,0.70
2023-02-20T05:23:22.341Z,0.00
2023-02-20T05:24:25.247Z,2.20
2023-02-20T05:25:27.786Z,1.27
2023-02-20T05:26:30.721Z,2.10
2023-02-20T05:27:33.617Z,0.40
2023-02-20T05:28:39.407Z,1.60
2023-02-20T05:29:45.466Z,0.00
2023-02-20T05:30:48.708Z,4.70
2023-02-20T05:31:51.156Z,0.00
2023-02-20T05:32:53.619Z,4.30
2023-02-20T05:33:55.915Z,0.50
2023-02-20T05:34:59.048Z,1.50
2023-02-20T05:36:01.454Z,1.30
2023-02-20T05:37:03.799Z,2.00
2023-02-20T05:38:07.998Z,1.40
2023-02-20T05:39:10.864Z,2.60
2023-02-20T05:40:15.877Z,2.70
2023-02-20T05:41:19.168Z,1.50
2023-02-20T05:42:22.542Z,3.90
2023-02-20T05:43:25.294Z,1.80
2023-02-20T05:44:29.690Z,0.80
2023-02-20T05:45:32.048Z,1.60
2023-02-20T05:46:40.726Z,0.80
2023-02-20T05:47:43.143Z,0.20
2023-02-20T05:48:50.752Z,4.60
2023-02-20T05:49:53.223Z,1.50
2023-02-20T05:50:55.458Z,1.00
2023-02-20T05:51:58.304Z,1.10
2023-02-20T05:53:01.198Z,0.55
2023-02-20T05:54:04.955Z,2.60
2023-02-20T05:55:08.102Z,2.60
2023-02-20T05:56:11.093Z,1.90
2023-02-20T05:57:13.514Z,0.50
2023-02-20T05:58:16.384Z,2.30
2023-02-20T05:59:20.910Z,0.82
2023-02-20T06:00:25.471Z,4.20
2023-02-20T06:01:29.999Z,1.64
2023-02-20T06:02:36.490Z,3.00
2023-02-20T06:03:38.612Z,1.00
2023-02-20T06:04:41.562Z,4.50
2023-02-20T06:05:45.802Z,2.55
2023-02-20T06:06:48.085Z,3.30
2023-02-20T06:07:51.029Z,0.30
2023-02-20T06:08:53.323Z,0.73
2023-02-20T06:09:58.035Z,1.40
2023-02-20T06:11:02.138Z,3.40
2023-02-20T06:12:06.286Z,0.50
2023-02-20T06:13:08.387Z,4.00
2023-02-20T06:14:10.599Z,4.20
2023-02-20T06:15:13.438Z,1.10
2023-02-20T06:16:25.249Z,5.60
2023-02-20T06:17:29.216Z,1.50
2023-02-20T06:18:31.645Z,4.60
2023-02-20T06:19:33.984Z,2.80
2023-02-20T06:20:36.288Z,1.00
2023-02-20T06:21:40.605Z,1.40
2023-02-20T06:22:43.176Z,1.60
2023-02-20T06:23:45.942Z,1.20
2023-02-20T06:24:48.491Z,2.70
2023-02-20T06:25:50.733Z,1.00
2023-02-20T06:26:54.497Z,2.80
2023-02-20T06:27:56.685Z,1.70
2023-02-20T06:28:59.023Z,2.70
2023-02-20T06:30:01.500Z,5.10
2023-02-20T06:31:04.953Z,2.30
2023-02-20T06:32:07.580Z,3.80
2023-02-20T06:33:10.773Z,6.09
2023-02-20T06:34:14.273Z,3.18
2023-02-20T06:35:18.408Z,2.50
2023-02-20T06:36:24.328Z,1.70
2023-02-20T06:37:27.017Z,0.20
2023-02-20T06:38:29.813Z,2.30
2023-02-20T06:39:32.972Z,2.00
2023-02-20T06:40:35.558Z,1.50
2023-02-20T06:41:37.937Z,1.30
2023-02-20T06:42:40.426Z,0.70
2023-02-20T06:43:43.817Z,1.70
2023-02-20T06:44:46.682Z,4.30
2023-02-20T06:45:48.950Z,1.20
2023-02-20T06:46:51.449Z,1.70
2023-02-20T06:47:53.977Z,2.10
2023-02-20T06:48:58.082Z,2.90
2023-02-20T06:50:00.486Z,2.00
2023-02-20T06:51:03.668Z,1.82
2023-02-20T06:52:06.637Z,2.90
2023-02-20T06:53:09.446Z,1.55
2023-02-20T06:54:15.517Z,0.82
2023-02-20T06:55:18.376Z,1.40
2023-02-20T06:56:25.276Z,4.30
2023-02-20T06:57:27.722Z,1.80
2023-02-20T06:58:30.099Z,2.20
2023-02-20T06:59:34.346Z,1.70
2023-02-20T07:00:36.892Z,4.40
2023-02-20T07:01:42.241Z,0.80
2023-02-20T07:02:44.944Z,1.90
2023-02-20T07:03:53.129Z,1.60
2023-02-20T07:04:55.416Z,1.90
2023-02-20T07:05:57.870Z,1.40
2023-02-20T07:07:01.126Z,1.30
2023-02-20T07:08:03.813Z,2.30
2023-02-20T07:09:06.213Z,4.70
2023-02-20T07:10:09.914Z,5.18
2023-02-20T07:11:14.219Z,3.70
2023-02-20T07:12:16.701Z,2.10
2023-02-20T07:13:18.982Z,1.50
2023-02-20T07:14:22.174Z,1.00
2023-02-20T07:15:24.668Z,0.40
2023-02-20T07:16:28.687Z,4.20
2023-02-20T07:17:30.994Z,1.00
2023-02-20T07:18:34.539Z,3.10
2023-02-20T07:19:36.721Z,6.20
2023-02-20T07:20:39.159Z,0.20
2023-02-20T07:21:42.057Z,0.00
2023-02-20T07:22:51.186Z,0.73
2023-02-20T07:23:54.442Z,2.30
2023-02-20T07:24:56.749Z,4.80
2023-02-20T07:25:59.117Z,3.60
2023-02-20T07:27:02.641Z,4.09
2023-02-20T07:28:06.832Z,3.70
2023-02-20T07:29:09.305Z,0.70
2023-02-20T07:30:12.666Z,1.45
2023-02-20T07:31:17.456Z,2.91
2023-02-20T07:32:21.909Z,0.70
2023-02-20T07:33:24.794Z,2.10
2023-02-20T07:34:27.183Z,3.09
2023-02-20T07:35:30.386Z,0.40
2023-02-20T07:36:36.630Z,2.50
2023-02-20T07:37:40.388Z,0.90
2023-02-20T07:38:43.014Z,1.00
2023-02-20T07:39:47.153Z,1.70
2023-02-20T07:40:50.121Z,3.20
2023-02-20T07:41:53.440Z,0.90
2023-02-20T07:43:07.130Z,4.00
2023-02-20T07:44:14.100Z,0.70
2023-02-20T07:45:17.201Z,1.90
2023-02-20T07:46:20.644Z,0.80
2023-02-20T07:47:23.402Z,1.00
2023-02-20T07:48:25.740Z,2.00
2023-02-20T07:49:28.110Z,0.20
2023-02-20T07:50:30.758Z,0.00
2023-02-20T07:51:33.294Z,3.50
2023-02-20T07:52:35.558Z,2.00
2023-02-20T07:53:39.294Z,3.00
2023-02-20T07:54:42.404Z,3.40
2023-02-20T07:55:44.702Z,4.09
2023-02-20T07:56:48.106Z,0.70
2023-02-20T07:57:52.790Z,0.90
2023-02-20T07:58:55.614Z,1.80
2023-02-20T07:59:58.051Z,1.00
2023-02-20T08:01:02.017Z,1.10
2023-02-20T08:02:04.704Z,0.90
2023-02-20T08:03:07.278Z,1.70
2023-02-20T08:04:09.855Z,4.50
2023-02-20T08:05:13.622Z,0.73
2023-02-20T08:06:18.867Z,1.00
2023-02-20T08:07:21.838Z,0.90
2023-02-20T08:08:28.240Z,1.00
2023-02-20T08:09:33.645Z,1.40
2023-02-20T08:10:36.435Z,2.60
2023-02-20T08:11:39.696Z,1.40
2023-02-20T08:12:42.381Z,0.10
2023-02-20T08:13:45.789Z,2.64
2023-02-20T08:14:52.112Z,3.20
2023-02-20T08:15:54.669Z,3.50
2023-02-20T08:16:57.243Z,1.00
2023-02-20T08:17:59.712Z,1.10
2023-02-20T08:19:02.138Z,4.10
2023-02-20T08:20:06.457Z,0.50
2023-02-20T08:21:09.119Z,2.90
2023-02-20T08:22:11.802Z,4.00
2023-02-20T08:23:20.195Z,0.40
2023-02-20T08:24:22.843Z,1.00
2023-02-20T08:25:25.164Z,1.30
2023-02-20T08:26:28.156Z,2.00
2023-02-20T08:27:31.132Z,0.80
2023-02-20T08:28:33.538Z,0.20
2023-02-20T08:29:35.932Z,0.10
2023-02-20T08:30:45.569Z,3.00
2023-02-20T08:31:49.889Z,3.20
2023-02-20T08:33:03.508Z,3.60
2023-02-20T08:34:07.409Z,0.90
2023-02-20T08:35:17.402Z,3.00
2023-02-20T08:37:31.860Z,1.60
2023-02-20T08:38:38.703Z,4.70
2023-02-20T08:41:11.909Z,2.20
2023-02-20T08:42:17.712Z,2.00
2023-02-20T08:43:26.406Z,2.20
2023-02-20T08:44:28.961Z,1.00
2023-02-20T08:45:31.321Z,0.60
2023-02-20T08:46:33.699Z,2.70
2023-02-20T08:47:37.497Z,1.90
2023-02-20T08:48:42.087Z,1.40
2023-02-20T08:49:47.802Z,1.50
2023-02-20T08:50:50.997Z,0.60
2023-02-20T08:51:55.242Z,2.20
2023-02-20T08:52:57.604Z,3.10
2023-02-20T08:53:59.875Z,1.00
2023-02-20T08:55:02.311Z,1.60
2023-02-20T08:56:06.337Z,1.40
2023-02-20T08:57:09.595Z,1.20
2023-02-20T08:58:12.299Z,0.70
2023-02-20T08:59:14.531Z,0.30
2023-02-20T09:00:19.714Z,0.60
2023-02-20T09:01:24.128Z,1.60
2023-02-20T09:02:29.252Z,1.10
2023-02-20T09:03:34.189Z,0.20
2023-02-20T09:04:36.578Z,0.70
2023-02-20T09:05:40.036Z,1.00
2023-02-20T09:06:42.945Z,0.00
2023-02-20T09:07:45.725Z,2.80
2023-02-20T09:08:50.217Z,3.45
2023-02-20T09:09:53.007Z,1.10
2023-02-20T09:10:56.405Z,1.00
2023-02-20T09:11:58.984Z,2.20
2023-02-20T09:13:02.592Z,2.80
2023-02-20T09:14:05.490Z,1.00
2023-02-20T09:15:09.602Z,0.60
2023-02-20T09:16:15.043Z,0.40
2023-02-20T09:17:18.354Z,1.50
2023-02-20T09:18:21.411Z,0.60
2023-02-20T09:19:24.228Z,4.82
2023-02-20T09:20:28.203Z,5.60
2023-02-20T09:21:30.560Z,0.00
2023-02-20T09:22:33.185Z,1.00
2023-02-20T09:23:36.675Z,2.40
2023-02-20T09:24:39.891Z,0.90
2023-02-20T09:25:42.690Z,2.10
2023-02-20T09:26:45.653Z,2.09
2023-02-20T09:27:47.929Z,3.09
2023-02-20T09:28:50.332Z,2.20
2023-02-20T09:29:53.159Z,1.40
2023-02-20T09:30:56.938Z,0.00
2023-02-20T09:31:59.547Z,1.80
2023-02-20T09:33:03.136Z,0.20
2023-02-20T09:34:05.526Z,2.10
2023-02-20T09:35:08.554Z,0.70
2023-02-20T09:36:14.254Z,2.20
2023-02-20T09:37:18.051Z,2.50
2023-02-20T09:38:26.461Z,1.10
2023-02-20T09:39:29.586Z,0.20
2023-02-20T09:40:32.822Z,2.30
2023-02-20T09:41:51.004Z,0.80
2023-02-20T09:43:10.855Z,2.20
2023-02-20T09:44:32.011Z,1.50
2023-02-20T09:45:37.879Z,1.70
2023-02-20T09:46:45.941Z,2.20
2023-02-20T09:48:10.698Z,1.50
2023-02-20T09:49:29.131Z,1.50
2023-02-20T09:50:43.776Z,0.20
2023-02-20T09:51:52.683Z,0.60
2023-02-20T09:54:18.887Z,3.50
2023-02-20T09:55:24.289Z,1.00
2023-02-20T09:56:36.945Z,0.00
2023-02-20T09:57:43.149Z,0.40
2023-02-20T09:58:51.628Z,1.30
2023-02-20T09:59:59.320Z,1.20
2023-02-20T10:01:04.434Z,1.10
2023-02-20T10:02:29.123Z,1.80
2023-02-20T10:03:44.076Z,1.20
2023-02-20T10:05:00.692Z,3.00
2023-02-20T10:05:56.689Z,2.70
2023-02-20T10:08:28.096Z,1.60
2023-02-20T10:09:32.838Z,1.80
2023-02-20T10:10:38.640Z,1.70
2023-02-20T10:12:00.793Z,1.90
2023-02-20T10:13:22.710Z,1.90
2023-02-20T10:14:37.934Z,3.80
2023-02-20T10:15:56.322Z,1.50
2023-02-20T10:17:23.934Z,2.80
2023-02-20T10:18:46.081Z,1.00
2023-02-20T10:19:55.103Z,3.40
2023-02-20T10:21:13.615Z,2.80
2023-02-20T10:22:35.165Z,1.50
2023-02-20T10:24:04.803Z,1.00
2023-02-20T10:25:04.026Z,1.50
2023-02-20T10:26:26.518Z,1.50
2023-02-20T10:27:44.486Z,0.80
2023-02-20T10:28:50.917Z,0.70
2023-02-20T10:29:57.579Z,0.50
2023-02-20T10:31:04.901Z,1.90
2023-02-20T10:33:37.688Z,0.70
2023-02-20T10:34:47.336Z,7.20
2023-02-20T10:35:59.119Z,2.20
2023-02-20T10:37:05.777Z,2.30
2023-02-20T10:38:11.402Z,2.70
2023-02-20T10:39:17.080Z,1.40
2023-02-20T10:40:35.505Z,2.70
2023-02-20T10:41:44.840Z,3.20
2023-02-20T10:42:56.442Z,4.00
2023-02-20T10:44:21.527Z,0.00
2023-02-20T10:45:39.567Z,2.50
2023-02-20T10:46:49.703Z,2.90
2023-02-20T10:47:59.684Z,2.20
2023-02-20T10:50:32.164Z,0.50
2023-02-20T10:51:48.811Z,1.20
2023-02-20T10:52:58.425Z,7.80
2023-02-20T10:54:18.680Z,0.80
2023-02-20T10:55:24.798Z,2.60
2023-02-20T10:57:46.503Z,1.90
2023-02-20T10:58:59.585Z,2.90
2023-02-20T11:00:11.784Z,0.80
2023-02-20T11:01:18.811Z,4.60
2023-02-20T11:02:27.475Z,2.30
2023-02-20T11:03:58.070Z,4.20
2023-02-20T11:05:13.977Z,2.20
2023-02-20T11:06:25.159Z,1.00
2023-02-20T11:07:33.796Z,3.00
2023-02-20T11:08:37.558Z,3.00
2023-02-20T11:09:42.741Z,3.60
2023-02-20T11:10:45.133Z,2.20
2023-02-20T11:11:51.260Z,4.20
2023-02-20T11:13:03.046Z,2.00
2023-02-20T11:14:14.919Z,0.20
2023-02-20T11:15:22.101Z,8.30
2023-02-20T11:16:35.735Z,2.80
2023-02-20T11:17:41.368Z,0.90
2023-02-20T11:18:51.227Z,2.80
2023-02-20T11:19:56.901Z,4.20
2023-02-20T11:21:00.206Z,1.60
2023-02-20T11:22:16.906Z,4.20
2023-02-20T11:23:42.635Z,3.40
2023-02-20T11:24:46.450Z,5.60
2023-02-20T11:25:54.672Z,8.20
2023-02-20T11:27:08.471Z,6.20
2023-02-20T11:28:17.679Z,5.30
2023-02-20T11:29:23.876Z,7.60
2023-02-20T11:30:33.071Z,4.20
2023-02-20T11:31:37.032Z,4.30
2023-02-20T11:32:41.045Z,4.90
2023-02-20T11:33:47.959Z,5.60
2023-02-20T11:35:21.046Z,5.70
2023-02-20T11:36:28.161Z,8.50
2023-02-20T11:37:31.629Z,6.50
2023-02-20T11:38:36.085Z,1.70
2023-02-20T11:39:39.664Z,6.60
2023-02-20T11:40:44.430Z,1.60
2023-02-20T11:41:49.771Z,3.60
2023-02-20T11:42:54.538Z,5.20
2023-02-20T11:44:12.649Z,4.20
2023-02-20T11:45:20.983Z,4.40
2023-02-20T11:46:23.954Z,2.50
2023-02-20T11:47:29.619Z,2.10
2023-02-20T11:48:33.510Z,0.50
2023-02-20T11:49:36.159Z,0.90
2023-02-20T11:52:23.086Z,4.00
2023-02-20T11:53:32.606Z,1.90
2023-02-20T11:54:39.266Z,4.80
2023-02-20T11:55:44.350Z,4.70
2023-02-20T11:57:08.039Z,4.00
2023-02-20T11:58:22.923Z,4.40
2023-02-20T11:59:46.008Z,4.00
2023-02-20T12:00:51.599Z,1.50
2023-02-20T12:02:00.902Z,1.40
2023-02-20T12:03:14.212Z,2.80
2023-02-20T12:04:23.272Z,5.10
2023-02-20T12:05:50.167Z,4.60
2023-02-20T12:06:58.567Z,2.10
2023-02-20T12:08:02.100Z,2.60
2023-02-20T12:09:09.270Z,5.60
2023-02-20T12:10:43.551Z,1.40
2023-02-20T12:11:46.968Z,3.40
2023-02-20T12:12:50.362Z,1.00
2023-02-20T12:13:56.742Z,2.80
2023-02-20T12:14:59.218Z,3.80
2023-02-20T12:16:17.717Z,7.50
2023-02-20T12:17:36.045Z,5.70
2023-02-20T12:18:47.925Z,5.00
2023-02-20T12:20:10.992Z,9.00
2023-02-20T12:21:31.133Z,7.40
2023-02-20T12:22:37.701Z,3.60
2023-02-20T12:24:04.594Z,3.60
2023-02-20T12:25:29.768Z,4.70
2023-02-20T12:26:40.349Z,4.60
2023-02-20T12:27:52.322Z,3.80
2023-02-20T12:28:58.608Z,3.50
2023-02-20T12:30:17.489Z,3.80
2023-02-20T12:31:42.573Z,3.90
2023-02-20T12:32:54.965Z,4.40
2023-02-20T12:34:07.289Z,3.30
2023-02-20T12:35:22.186Z,2.70
2023-02-20T12:36:31.388Z,5.50
2023-02-20T12:37:40.543Z,4.20
2023-02-20T12:39:01.582Z,3.80
2023-02-20T12:40:07.611Z,2.00
2023-02-20T12:41:17.073Z,5.70
2023-02-20T12:42:38.219Z,3.00
2023-02-20T12:43:57.449Z,3.50
2023-02-20T12:45:03.938Z,3.80
2023-02-20T12:46:28.038Z,1.60
2023-02-20T12:47:34.627Z,2.10
2023-02-20T12:48:53.297Z,2.70
2023-02-20T12:50:23.490Z,3.60
2023-02-20T12:51:46.135Z,7.90
2023-02-20T12:53:08.935Z,5.20
2023-02-20T12:54:31.502Z,4.60
2023-02-20T12:55:56.202Z,5.20
2023-02-20T12:57:14.965Z,4.00
2023-02-20T12:58:30.307Z,2.20
2023-02-20T12:59:48.611Z,4.10
2023-02-20T13:01:01.134Z,5.00
2023-02-20T13:02:21.016Z,3.50
2023-02-20T13:03:44.605Z,7.10
2023-02-20T13:04:50.603Z,4.30
2023-02-20T13:05:53.491Z,2.70
2023-02-20T13:07:11.401Z,5.27
2023-02-20T13:08:32.376Z,7.40
2023-02-20T13:09:39.051Z,8.00
2023-02-20T13:10:59.409Z,7.00
2023-02-20T13:12:08.153Z,4.00
2023-02-20T13:13:11.380Z,5.80
2023-02-20T13:14:17.707Z,11.50
2023-02-20T13:15:26.769Z,10.40
2023-02-20T13:16:36.037Z,2.90
2023-02-20T13:17:44.758Z,8.70
2023-02-20T13:18:54.091Z,6.70
2023-02-20T13:20:20.229Z,6.20
2023-02-20T13:21:26.157Z,8.40
2023-02-20T13:22:30.565Z,2.00
2023-02-20T13:23:35.782Z,7.40
2023-02-20T13:24:39.517Z,7.20
2023-02-20T13:25:46.338Z,6.00
2023-02-20T13:26:53.330Z,9.30
2023-02-20T13:28:02.099Z,6.20
2023-02-20T13:30:32.259Z,5.40
2023-02-20T13:31:38.374Z,8.60
2023-02-20T13:32:42.767Z,5.20
2023-02-20T13:36:51.523Z,7.80
2023-02-20T13:37:56.249Z,5.40
2023-02-20T13:39:23.196Z,9.30
2023-02-20T13:40:32.992Z,4.50
2023-02-20T13:42:53.433Z,4.30
2023-02-20T13:43:59.848Z,5.80
2023-02-20T13:45:04.096Z,4.40
2023-02-20T13:46:12.136Z,8.30
2023-02-20T13:47:28.082Z,7.00
2023-02-20T13:48:33.409Z,5.20
2023-02-20T13:49:48.736Z,7.00
2023-02-20T13:51:13.309Z,3.30
2023-02-20T13:52:42.326Z,7.10
2023-02-20T13:53:54.264Z,8.00
2023-02-20T13:54:59.286Z,5.00
2023-02-20T13:56:01.649Z,6.90
2023-02-20T13:57:07.821Z,7.70
2023-02-20T13:58:15.200Z,4.90
2023-02-20T13:59:20.096Z,4.60
2023-02-20T14:00:35.637Z,5.70
2023-02-20T14:01:59.999Z,5.40
2023-02-20T14:03:25.412Z,4.00
2023-02-20T14:04:29.070Z,6.10
2023-02-20T14:05:32.850Z,5.60
2023-02-20T14:06:44.077Z,3.50
2023-02-20T14:07:45.589Z,8.60
2023-02-20T14:08:50.420Z,5.40
2023-02-20T14:10:05.451Z,8.90
2023-02-20T14:11:14.239Z,6.90
2023-02-20T14:12:17.110Z,7.00
2023-02-20T14:13:38.962Z,6.10
2023-02-20T14:14:30.861Z,6.00
2023-02-20T14:15:36.565Z,15.40
2023-02-20T14:16:44.854Z,8.70
2023-02-20T14:17:47.306Z,7.10
2023-02-20T14:18:51.117Z,5.60
2023-02-20T14:20:13.514Z,10.30
2023-02-20T14:21:25.868Z,6.80
2023-02-20T14:22:33.523Z,7.30
2023-02-20T14:23:38.251Z,5.50
2023-02-20T14:24:40.817Z,6.30
2023-02-20T14:26:01.383Z,3.90
2023-02-20T14:27:08.018Z,6.90
2023-02-20T14:28:15.538Z,4.10
2023-02-20T14:29:32.915Z,6.10
2023-02-20T14:30:38.169Z,5.20
2023-02-20T14:31:41.081Z,5.50
2023-02-20T14:32:47.599Z,11.91
2023-02-20T14:33:53.495Z,9.50
2023-02-20T14:35:09.050Z,16.00
2023-02-20T14:36:49.368Z,15.50
2023-02-20T14:38:14.872Z,13.00
2023-02-20T14:39:27.101Z,21.60
2023-02-20T14:40:38.703Z,27.50
2023-02-20T14:41:58.992Z,13.00
2023-02-20T14:43:03.850Z,14.10
2023-02-20T14:44:10.301Z,10.40
2023-02-20T14:45:19.836Z,11.20
2023-02-20T14:46:25.615Z,5.10
2023-02-20T14:47:28.979Z,8.80
2023-02-20T14:48:37.040Z,7.50
2023-02-20T14:49:40.208Z,9.80
2023-02-20T14:50:46.071Z,7.90
2023-02-20T14:51:48.394Z,8.36
2023-02-20T14:53:12.916Z,9.60
2023-02-20T14:54:22.234Z,10.50
2023-02-20T14:55:26.446Z,7.60
2023-02-20T14:56:32.081Z,7.50
2023-02-20T14:57:36.093Z,6.60
2023-02-20T14:58:38.520Z,6.80
2023-02-20T14:59:42.043Z,6.90
2023-02-20T15:00:48.157Z,13.10
2023-02-20T15:01:54.683Z,9.30
2023-02-20T15:03:01.321Z,7.80
2023-02-20T15:04:20.759Z,9.40
2023-02-20T15:05:29.619Z,14.60
2023-02-20T15:06:47.469Z,4.10
2023-02-20T15:08:04.775Z,10.10
2023-02-20T15:09:21.363Z,8.20
2023-02-20T15:10:30.077Z,13.70
2023-02-20T15:11:33.785Z,12.80
2023-02-20T15:12:39.085Z,5.20
2023-02-20T15:13:44.740Z,3.90
2023-02-20T15:14:51.801Z,2.60
2023-02-20T15:16:10.268Z,7.90
2023-02-20T15:17:23.238Z,10.50
2023-02-20T15:18:41.764Z,7.60
2023-02-20T15:19:44.891Z,13.40